Time;durP1;ratioP1;P1;durP2;ratioP2;P2;SDS_P1;SDS_P2;PMS_P1;PMS_P2;Temp;Humidity;BMP_temperature;BMP_pressure;BME280_temperature;BME280_humidity;BME280_pressure;Samples;Min_cycle;Max_cycle;Signal;HPM_P1;HPM_P2
2022/04/29 00:02:15;;;;;;;7.32;2.08;;;12.20;73.50;;;;;;5075943;28;20036;-78
2022/04/29 00:04:42;;;;;;;6.75;2.90;;;12.20;73.80;;;;;;5076570;28;20081;-78
2022/04/29 00:07:09;;;;;;;8.50;2.65;;;12.20;73.80;;;;;;5076180;28;20463;-79
2022/04/29 00:09:35;;;;;;;10.70;3.20;;;12.40;73.60;;;;;;5076008;28;20046;-79
2022/04/29 00:12:02;;;;;;;10.02;3.28;;;12.20;73.50;;;;;;5075976;28;20040;-78
2022/04/29 00:14:28;;;;;;;8.38;2.50;;;12.10;73.90;;;;;;5076011;28;20032;-78
2022/04/29 00:16:54;;;;;;;7.20;1.88;;;12.00;74.40;;;;;;5075920;28;20028;-78
2022/04/29 00:19:20;;;;;;;9.20;2.83;;;12.20;74.50;;;;;;5075825;28;20082;-78
2022/04/29 00:21:45;;;;;;;10.27;2.65;;;12.20;73.80;;;;;;5076061;28;20031;-78
2022/04/29 00:24:11;;;;;;;8.95;3.10;;;12.10;74.20;;;;;;5075868;28;20105;-78
2022/04/29 00:26:38;;;;;;;8.95;3.00;;;12.20;74.10;;;;;;5075610;28;20142;-78
2022/04/29 00:29:04;;;;;;;12.02;4.03;;;12.10;74.30;;;;;;5075563;28;20490;-78
2022/04/29 00:31:31;;;;;;;7.18;2.15;;;11.70;75.20;;;;;;5075497;28;20491;-78
2022/04/29 00:33:57;;;;;;;9.10;3.10;;;11.50;76.10;;;;;;5075856;28;20035;-78
2022/04/29 00:36:23;;;;;;;9.80;3.60;;;11.60;76.00;;;;;;5075401;28;20703;-78
2022/04/29 00:38:49;;;;;;;12.48;4.20;;;11.50;76.20;;;;;;5075559;28;20095;-78
2022/04/29 00:41:18;;;;;;;12.35;3.25;;;11.40;76.80;;;;;;5075463;28;20029;-78
2022/04/29 00:43:44;;;;;;;15.98;3.90;;;11.20;77.30;;;;;;5075357;28;20079;-78
2022/04/29 00:46:10;;;;;;;14.63;4.60;;;11.30;77.40;;;;;;5075288;28;20052;-78
2022/04/29 00:48:36;;;;;;;11.23;4.03;;;11.10;77.90;;;;;;5075549;28;20021;-78
2022/04/29 00:51:02;;;;;;;10.60;4.32;;;11.00;79.20;;;;;;5075482;28;20020;-79
2022/04/29 00:53:29;;;;;;;8.65;4.47;;;11.00;78.60;;;;;;5075202;28;20024;-79
2022/04/29 00:55:56;;;;;;;10.25;4.35;;;10.90;79.10;;;;;;5075107;28;20410;-79
2022/04/29 00:58:38;;;;;;;12.25;4.30;;;10.90;79.20;;;;;;5075204;28;20402;-79
2022/04/29 01:01:04;;;;;;;16.55;4.53;;;10.90;79.20;;;;;;5075423;28;20154;-79
2022/04/29 01:03:30;;;;;;;10.20;4.43;;;11.00;79.10;;;;;;5075158;28;20450;-78
2022/04/29 01:05:56;;;;;;;13.02;4.20;;;11.00;78.90;;;;;;5074953;28;20475;-77
2022/04/29 01:08:22;;;;;;;9.95;3.75;;;11.20;78.90;;;;;;5075228;28;20059;-78
2022/04/29 01:10:48;;;;;;;15.00;4.95;;;11.10;78.60;;;;;;5074667;28;20083;-78
2022/04/29 01:13:15;;;;;;;11.23;4.65;;;11.20;78.50;;;;;;5074788;28;20031;-78
2022/04/29 01:15:41;;;;;;;11.55;5.07;;;11.10;78.70;;;;;;5074732;28;20028;-78
2022/04/29 01:18:11;;;;;;;14.27;5.22;;;11.10;78.90;;;;;;5074893;28;20024;-78
2022/04/29 01:20:38;;;;;;;13.48;4.45;;;10.90;79.50;;;;;;5074671;28;20376;-79
2022/04/29 01:23:08;;;;;;;15.27;4.97;;;10.70;80.20;;;;;;5074556;28;20104;-79
2022/04/29 01:25:33;;;;;;;9.70;5.00;;;10.90;80.40;;;;;;5074619;28;20455;-78
2022/04/29 01:27:59;;;;;;;10.80;4.97;;;10.90;80.40;;;;;;5074718;28;20048;-78
2022/04/29 01:30:25;;;;;;;15.32;4.85;;;11.00;80.30;;;;;;5074741;28;20033;-78
2022/04/29 01:32:53;;;;;;;13.13;4.50;;;11.10;79.90;;;;;;5074600;28;20028;-78
2022/04/29 01:35:19;;;;;;;12.60;5.68;;;11.10;79.80;;;;;;5073549;28;20492;-79
2022/04/29 01:37:45;;;;;;;12.95;5.80;;;11.10;79.50;;;;;;5074842;28;20035;-78
2022/04/29 01:40:12;;;;;;;12.80;5.97;;;10.90;79.80;;;;;;5074271;28;20021;-78
2022/04/29 01:42:38;;;;;;;14.30;6.00;;;10.70;80.80;;;;;;5074139;28;20028;-78
2022/04/29 01:45:04;;;;;;;17.40;5.50;;;10.60;81.30;;;;;;5074289;28;20032;-79
2022/04/29 01:47:30;;;;;;;15.57;6.13;;;10.70;81.40;;;;;;5074251;28;20020;-78
2022/04/29 01:49:56;;;;;;;17.25;7.00;;;10.80;81.40;;;;;;5074390;28;20031;-79
2022/04/29 01:52:21;;;;;;;11.40;4.85;;;10.80;81.20;;;;;;5074403;28;20104;-78
2022/04/29 01:54:47;;;;;;;15.23;6.78;;;10.70;82.20;;;;;;5073744;28;20476;-78
2022/04/29 01:57:13;;;;;;;13.80;6.20;;;10.60;82.10;;;;;;5073816;28;20047;-79
2022/04/29 01:59:38;;;;;;;16.52;6.57;;;10.40;82.90;;;;;;5074166;28;20035;-79
2022/04/29 02:02:07;;;;;;;11.77;5.70;;;10.30;83.10;;;;;;5074175;28;20024;-79
2022/04/29 02:04:34;;;;;;;19.80;5.45;;;10.20;83.80;;;;;;5074008;28;20123;-79
2022/04/29 02:07:00;;;;;;;14.88;6.35;;;10.30;83.80;;;;;;5073854;28;20048;-79
2022/04/29 02:09:26;;;;;;;15.02;6.13;;;10.50;83.70;;;;;;5073891;28;20045;-78
2022/04/29 02:12:04;;;;;;;15.60;6.38;;;10.40;83.60;;;;;;5074026;28;20043;-79
2022/04/29 02:14:34;;;;;;;13.07;6.40;;;10.40;84.10;;;;;;5073627;28;20444;-79
2022/04/29 02:17:02;;;;;;;15.82;6.32;;;10.50;83.90;;;;;;5073877;28;20023;-78
2022/04/29 02:19:28;;;;;;;16.23;6.13;;;10.60;83.50;;;;;;5073694;28;20439;-79
2022/04/29 02:21:54;;;;;;;16.95;6.85;;;10.50;83.80;;;;;;5073195;28;20029;-79
2022/04/29 02:24:20;;;;;;;11.15;6.10;;;10.20;84.40;;;;;;5073695;28;20063;-78
2022/04/29 02:26:46;;;;;;;16.33;7.00;;;10.20;85.20;;;;;;5073481;28;20051;-78
2022/04/29 02:29:11;;;;;;;15.80;7.30;;;10.20;85.70;;;;;;5073686;28;20036;-78
2022/04/29 02:31:37;;;;;;;14.00;6.68;;;10.20;85.60;;;;;;5073234;28;20070;-78
2022/04/29 02:34:03;;;;;;;12.18;7.00;;;10.30;86.00;;;;;;5073618;28;20111;-78
2022/04/29 02:36:29;;;;;;;14.18;6.65;;;10.30;85.40;;;;;;5073593;28;20055;-78
2022/04/29 02:38:54;;;;;;;16.33;7.55;;;10.30;85.70;;;;;;5073616;28;20063;-78
2022/04/29 02:41:20;;;;;;;15.77;6.78;;;10.30;86.00;;;;;;5073450;28;20119;-78
2022/04/29 02:43:45;;;;;;;13.48;6.18;;;10.30;86.80;;;;;;5073130;28;20044;-78
2022/04/29 02:46:11;;;;;;;17.35;6.82;;;10.30;86.20;;;;;;5073394;28;20028;-78
2022/04/29 02:48:37;;;;;;;11.60;5.65;;;10.30;86.60;;;;;;5073543;28;20103;-78
2022/04/29 02:51:05;;;;;;;14.23;7.78;;;10.30;86.40;;;;;;5072926;28;20021;-78
2022/04/29 02:53:31;;;;;;;12.30;6.70;;;10.40;86.10;;;;;;5073487;28;20048;-78
2022/04/29 02:55:57;;;;;;;12.57;6.90;;;10.30;86.40;;;;;;5073389;28;20031;-78
2022/04/29 02:58:23;;;;;;;15.05;6.97;;;10.40;86.50;;;;;;5073513;28;20107;-78
2022/04/29 03:00:49;;;;;;;16.35;7.15;;;10.40;86.80;;;;;;5073147;28;20028;-78
2022/04/29 03:03:14;;;;;;;12.32;5.85;;;10.50;86.60;;;;;;5073122;28;20024;-78
2022/04/29 03:05:40;;;;;;;12.80;6.32;;;10.50;86.10;;;;;;5072937;28;20044;-77
2022/04/29 03:08:06;;;;;;;9.95;6.20;;;10.60;86.10;;;;;;5073240;28;20024;-78
2022/04/29 03:10:33;;;;;;;12.50;6.70;;;10.80;85.70;;;;;;5072748;28;20060;-79
2022/04/29 03:12:59;;;;;;;10.77;6.88;;;10.90;85.20;;;;;;5072940;28;20020;-78
2022/04/29 03:15:25;;;;;;;15.88;7.63;;;11.00;85.50;;;;;;5073053;28;20062;-79
2022/04/29 03:20:39;;;;;;;18.73;7.90;;;10.80;84.90;;;;;;5072909;28;20039;-79
2022/04/29 03:23:05;;;;;;;15.35;7.30;;;10.80;85.00;;;;;;5072900;28;20078;-79
2022/04/29 03:25:31;;;;;;;14.93;7.57;;;10.80;85.00;;;;;;5072968;28;20024;-79
2022/04/29 03:27:57;;;;;;;15.93;7.95;;;10.60;85.40;;;;;;5072842;28;20468;-78
2022/04/29 03:30:24;;;;;;;17.80;8.55;;;10.30;86.90;;;;;;5072623;28;20028;-78
2022/04/29 03:33:00;;;;;;;9.55;5.32;;;10.20;87.80;;;;;;5072698;28;20017;-78
2022/04/29 03:35:26;;;;;;;21.70;8.02;;;10.10;88.40;;;;;;5072799;28;20032;-78
2022/04/29 03:37:53;;;;;;;15.07;7.75;;;10.20;88.20;;;;;;5073051;28;20104;-78
2022/04/29 03:40:22;;;;;;;14.88;7.18;;;10.20;88.80;;;;;;5073047;28;20105;-78
2022/04/29 03:42:57;;;;;;;16.38;6.55;;;10.10;88.60;;;;;;5072709;28;20032;-78
2022/04/29 03:45:25;;;;;;;12.25;5.70;;;10.20;88.80;;;;;;5072625;28;20068;-78
2022/04/29 03:47:51;;;;;;;15.23;6.63;;;10.40;88.40;;;;;;5072540;28;20376;-78
2022/04/29 03:50:16;;;;;;;17.70;7.57;;;10.40;87.80;;;;;;5072945;28;20111;-79
2022/04/29 03:52:50;;;;;;;19.83;7.68;;;10.40;87.90;;;;;;5072436;28;20025;-78
2022/04/29 03:55:17;;;;;;;15.15;6.57;;;10.10;88.90;;;;;;5072904;28;20116;-78
2022/04/29 03:57:43;;;;;;;12.45;7.28;;;10.00;89.80;;;;;;5073351;28;20521;-78
2022/04/29 04:00:09;;;;;;;15.77;7.25;;;9.90;90.10;;;;;;5076272;28;20100;-78
2022/04/29 04:02:35;;;;;;;16.23;8.05;;;9.90;90.30;;;;;;5076105;28;20032;-78
2022/04/29 04:05:01;;;;;;;13.02;6.95;;;9.90;90.20;;;;;;5076295;28;20082;-78
2022/04/29 04:07:26;;;;;;;16.35;7.57;;;9.90;90.40;;;;;;5076136;28;20063;-78
2022/04/29 04:09:52;;;;;;;17.60;6.97;;;10.10;90.20;;;;;;5075928;28;20052;-78
2022/04/29 04:12:18;;;;;;;14.65;7.07;;;10.10;90.10;;;;;;5076159;28;20065;-78
2022/04/29 04:14:43;;;;;;;15.60;7.22;;;10.20;90.20;;;;;;5075659;28;20529;-79
2022/04/29 04:17:09;;;;;;;10.90;6.30;;;10.00;90.10;;;;;;5076178;28;20021;-79
2022/04/29 04:19:36;;;;;;;13.05;7.47;;;10.10;90.30;;;;;;5076555;28;20080;-77
2022/04/29 04:22:02;;;;;;;16.90;7.28;;;10.20;90.30;;;;;;5076118;28;20025;-77
2022/04/29 04:24:28;;;;;;;15.10;7.97;;;10.10;90.30;;;;;;5076155;28;20043;-78
2022/04/29 04:26:54;;;;;;;13.80;6.38;;;10.10;90.30;;;;;;5075488;28;20017;-78
2022/04/29 04:29:19;;;;;;;19.05;8.27;;;10.00;90.40;;;;;;5075613;28;20430;-78
2022/04/29 04:31:45;;;;;;;11.32;7.03;;;10.10;90.50;;;;;;5075877;28;20028;-78
2022/04/29 04:36:55;;;;;;;18.13;8.48;;;10.10;90.60;;;;;;5075384;28;20078;-78
2022/04/29 04:39:21;;;;;;;10.82;5.75;;;10.00;90.70;;;;;;5075438;28;20020;-77
2022/04/29 04:41:48;;;;;;;17.35;7.15;;;10.10;90.60;;;;;;5075658;28;20043;-77
2022/04/29 04:44:13;;;;;;;16.25;7.40;;;10.20;90.50;;;;;;5075268;28;20028;-77
2022/04/29 04:46:40;;;;;;;17.85;7.55;;;10.10;90.50;;;;;;5075418;28;20025;-77
2022/04/29 04:49:05;;;;;;;14.27;7.38;;;10.00;90.80;;;;;;5075334;28;20017;-77
2022/04/29 04:51:31;;;;;;;19.52;8.05;;;10.00;91.00;;;;;;5075336;28;20031;-77
2022/04/29 04:53:57;;;;;;;15.70;6.45;;;9.90;91.00;;;;;;5074880;28;20052;-77
2022/04/29 04:56:23;;;;;;;16.90;7.57;;;9.80;91.50;;;;;;5075153;28;20060;-77
2022/04/29 04:58:48;;;;;;;19.38;7.85;;;9.90;91.60;;;;;;5075312;28;20028;-78
2022/04/29 05:01:14;;;;;;;19.50;7.93;;;9.90;91.30;;;;;;5075574;28;20109;-78
2022/04/29 05:03:40;;;;;;;17.17;8.20;;;9.90;91.40;;;;;;5074989;28;20024;-78
2022/04/29 05:06:05;;;;;;;19.35;8.00;;;9.90;91.40;;;;;;5074802;28;20090;-78
2022/04/29 05:08:31;;;;;;;17.52;8.02;;;9.90;91.60;;;;;;5074709;28;20103;-78
2022/04/29 05:10:56;;;;;;;15.43;7.80;;;9.90;91.50;;;;;;5073657;28;20052;-78
2022/04/29 05:13:22;;;;;;;12.50;6.32;;;9.90;91.60;;;;;;5074707;28;20463;-78
2022/04/29 05:15:48;;;;;;;17.25;7.10;;;10.10;91.60;;;;;;5074839;28;20032;-78
2022/04/29 05:18:15;;;;;;;17.98;7.68;;;10.10;91.30;;;;;;5074953;28;20448;-78
2022/04/29 05:20:40;;;;;;;20.38;8.23;;;10.30;91.10;;;;;;5074663;28;20028;-78
2022/04/29 05:23:06;;;;;;;18.05;7.63;;;10.30;90.90;;;;;;5074339;28;20021;-78
2022/04/29 05:25:33;;;;;;;13.40;6.55;;;10.30;90.90;;;;;;5074602;28;20119;-79
2022/04/29 05:27:59;;;;;;;15.52;7.35;;;10.20;91.10;;;;;;5074641;28;20101;-77
2022/04/29 05:30:27;;;;;;;17.38;7.35;;;10.30;91.00;;;;;;5074726;28;20478;-77
2022/04/29 05:32:53;;;;;;;14.10;8.18;;;10.20;91.00;;;;;;5074392;28;20024;-78
2022/04/29 05:35:19;;;;;;;12.35;6.80;;;10.20;91.10;;;;;;5074292;28;20036;-78
2022/04/29 05:37:44;;;;;;;16.65;7.22;;;10.10;91.30;;;;;;5074152;28;20021;-78
2022/04/29 05:43:16;;;;;;;20.00;8.23;;;10.40;91.20;;;;;;5032153;28;20380;-78
2022/04/29 05:45:42;;;;;;;22.58;8.80;;;10.30;91.20;;;;;;5032128;28;20109;-78
2022/04/29 05:48:08;;;;;;;20.73;8.45;;;10.30;91.20;;;;;;5051721;28;20032;-78
2022/04/29 05:50:33;;;;;;;16.70;8.25;;;10.00;91.60;;;;;;5074295;28;20035;-78
2022/04/29 05:52:59;;;;;;;15.32;8.07;;;9.80;92.10;;;;;;5074112;28;20490;-78
2022/04/29 05:55:25;;;;;;;14.65;7.60;;;9.90;92.30;;;;;;5073888;28;20024;-78
2022/04/29 05:57:50;;;;;;;21.58;8.05;;;9.90;92.20;;;;;;5073839;28;20031;-78
2022/04/29 06:00:16;;;;;;;17.10;8.68;;;10.00;92.30;;;;;;5074153;28;20033;-78
2022/04/29 06:02:43;;;;;;;19.75;8.60;;;9.90;92.30;;;;;;5073761;28;20048;-78
2022/04/29 06:05:09;;;;;;;14.35;7.63;;;9.70;92.60;;;;;;5073872;28;20040;-78
2022/04/29 06:07:34;;;;;;;16.08;6.88;;;9.70;92.90;;;;;;5073759;28;20021;-78
2022/04/29 06:10:00;;;;;;;15.88;7.43;;;9.80;93.00;;;;;;5073520;28;20139;-78
2022/04/29 06:12:26;;;;;;;19.73;8.00;;;9.90;92.80;;;;;;5073672;28;20035;-78
2022/04/29 06:14:51;;;;;;;22.63;8.10;;;10.00;92.70;;;;;;5073855;28;20028;-77
2022/04/29 06:17:17;;;;;;;20.02;8.05;;;10.00;92.70;;;;;;5073397;28;20017;-79
2022/04/29 06:19:43;;;;;;;13.50;6.90;;;10.10;92.60;;;;;;5073978;28;20107;-78
2022/04/29 06:22:08;;;;;;;14.80;7.22;;;10.20;92.60;;;;;;5073510;28;20027;-78
2022/04/29 06:24:34;;;;;;;14.27;7.18;;;10.30;92.40;;;;;;5073706;28;20489;-78
2022/04/29 06:27:01;;;;;;;15.55;7.68;;;10.50;92.20;;;;;;5073783;28;20021;-79
2022/04/29 06:29:27;;;;;;;12.75;5.93;;;10.50;92.00;;;;;;5073392;28;20029;-77
2022/04/29 06:31:53;;;;;;;15.30;8.30;;;10.40;92.20;;;;;;5073289;28;20024;-78
2022/04/29 06:34:18;;;;;;;18.30;6.75;;;10.40;92.00;;;;;;5073623;28;20028;-78
2022/04/29 06:36:44;;;;;;;12.02;6.05;;;10.40;92.20;;;;;;5073486;28;20020;-78
2022/04/29 06:39:09;;;;;;;16.65;7.53;;;10.60;92.00;;;;;;5073341;28;20033;-78
2022/04/29 06:41:36;;;;;;;18.08;7.43;;;10.70;91.80;;;;;;5073377;28;20375;-78
2022/04/29 06:44:02;;;;;;;15.30;7.15;;;10.50;91.90;;;;;;5073385;28;20043;-78
2022/04/29 06:46:27;;;;;;;16.92;7.82;;;10.50;92.10;;;;;;5072819;28;20111;-79
2022/04/29 06:48:54;;;;;;;17.17;8.40;;;10.50;92.20;;;;;;5072991;28;20052;-78
2022/04/29 06:51:20;;;;;;;14.45;6.47;;;10.40;92.30;;;;;;5073015;28;20464;-78
2022/04/29 06:53:46;;;;;;;11.43;6.70;;;10.50;92.40;;;;;;5073418;28;20059;-78
2022/04/29 06:56:12;;;;;;;13.45;6.32;;;10.50;92.40;;;;;;5072874;28;20035;-78
2022/04/29 06:58:37;;;;;;;19.65;7.38;;;10.50;92.30;;;;;;5072922;28;20104;-78
2022/04/29 07:01:03;;;;;;;17.98;7.97;;;10.50;92.50;;;;;;5072792;28;20032;-78
2022/04/29 07:03:29;;;;;;;14.13;8.10;;;10.50;92.60;;;;;;5072865;28;20484;-78
2022/04/29 07:05:55;;;;;;;23.95;7.68;;;10.40;93.00;;;;;;5073178;28;20036;-78
2022/04/29 07:08:21;;;;;;;22.20;8.27;;;10.30;93.30;;;;;;5073158;28;20031;-78
2022/04/29 07:10:47;;;;;;;15.18;6.78;;;10.30;93.30;;;;;;5072802;28;20056;-78
2022/04/29 07:13:12;;;;;;;14.68;7.07;;;10.40;93.50;;;;;;5073211;28;20119;-78
2022/04/29 07:15:43;;;;;;;19.50;7.00;;;10.60;93.30;;;;;;5072537;28;20381;-78
2022/04/29 07:18:09;;;;;;;17.45;7.13;;;10.80;93.00;;;;;;5073130;28;20032;-77
2022/04/29 07:20:35;;;;;;;31.58;7.97;;;10.90;92.70;;;;;;5072984;28;20035;-77
2022/04/29 07:23:01;;;;;;;18.23;6.88;;;10.90;92.50;;;;;;5072955;28;20100;-78
2022/04/29 07:25:26;;;;;;;22.42;8.38;;;10.90;92.30;;;;;;5072161;28;20459;-78
2022/04/29 07:27:52;;;;;;;16.20;7.10;;;10.90;92.60;;;;;;5072533;28;20029;-78
2022/04/29 07:30:17;;;;;;;15.80;6.88;;;10.80;92.70;;;;;;5072617;28;20025;-78
2022/04/29 07:32:43;;;;;;;11.43;5.53;;;10.70;92.90;;;;;;5073186;28;20024;-78
2022/04/29 07:43:22;;;;;;;16.63;6.65;;;11.30;92.00;;;;;;5076594;28;20094;-78
2022/04/29 07:45:50;;;;;;;15.77;6.60;;;11.30;92.00;;;;;;5075842;28;20033;-78
2022/04/29 07:48:17;;;;;;;13.98;5.90;;;11.30;92.30;;;;;;5076581;28;20420;-78
2022/04/29 07:50:42;;;;;;;17.90;6.22;;;11.50;92.10;;;;;;5076563;28;20036;-78
2022/04/29 07:53:08;;;;;;;15.13;6.70;;;11.60;91.40;;;;;;5076217;28;20016;-78
2022/04/29 07:55:35;;;;;;;15.05;6.65;;;11.60;91.00;;;;;;5076403;28;20025;-78
2022/04/29 07:58:03;;;;;;;12.30;6.40;;;11.50;91.10;;;;;;5076041;28;20525;-78
2022/04/29 08:00:31;;;;;;;11.52;4.72;;;11.40;91.80;;;;;;5075817;28;20483;-79
2022/04/29 08:03:02;;;;;;;16.40;5.53;;;11.60;91.70;;;;;;5076162;28;20028;-79
2022/04/29 08:05:28;;;;;;;12.60;5.20;;;11.90;91.20;;;;;;5076021;28;20101;-78
2022/04/29 08:07:55;;;;;;;13.73;5.72;;;12.10;90.70;;;;;;5076255;28;20025;-78
2022/04/29 08:10:22;;;;;;;14.50;5.10;;;12.10;90.50;;;;;;5075589;28;20067;-78
2022/04/29 08:12:47;;;;;;;14.98;5.45;;;12.20;90.10;;;;;;5076089;28;20029;-78
2022/04/29 08:15:13;;;;;;;13.75;5.35;;;12.10;90.00;;;;;;5075766;28;20123;-78
2022/04/29 08:17:39;;;;;;;16.52;5.60;;;12.00;90.10;;;;;;5075676;28;20024;-78
2022/04/29 08:20:08;;;;;;;12.55;5.10;;;12.00;90.70;;;;;;5075718;28;20107;-78
2022/04/29 08:22:34;;;;;;;15.73;5.40;;;12.10;90.30;;;;;;5075635;28;20037;-78
2022/04/29 08:25:00;;;;;;;13.43;5.70;;;12.30;90.10;;;;;;5075842;28;20041;-78
2022/04/29 08:27:25;;;;;;;11.27;4.95;;;12.50;88.80;;;;;;5075941;28;20020;-78
2022/04/29 08:29:51;;;;;;;13.55;5.28;;;12.40;88.90;;;;;;5075655;28;20551;-78
2022/04/29 08:32:18;;;;;;;10.35;5.00;;;12.50;88.80;;;;;;5075762;28;20475;-78
2022/04/29 08:34:43;;;;;;;14.57;5.25;;;12.50;88.40;;;;;;5075729;28;20037;-78
2022/04/29 08:37:09;;;;;;;11.68;4.85;;;12.50;88.50;;;;;;5075464;28;20438;-78
2022/04/29 08:39:35;;;;;;;16.23;5.82;;;12.60;88.40;;;;;;5075610;28;20036;-78
2022/04/29 08:42:02;;;;;;;10.07;4.72;;;12.70;85.20;;;;;;5075517;28;20017;-78
2022/04/29 08:44:30;;;;;;;13.13;5.78;;;12.60;84.30;;;;;;5075045;28;20028;-78
2022/04/29 08:46:56;;;;;;;12.63;5.55;;;12.60;86.20;;;;;;5075044;28;20025;-78
2022/04/29 08:49:24;;;;;;;13.02;5.85;;;12.50;85.00;;;;;;5075442;28;20029;-78
2022/04/29 08:51:50;;;;;;;11.57;4.95;;;12.40;85.80;;;;;;5075117;28;20027;-78
2022/04/29 08:58:36;;;;;;;17.10;6.15;;;12.40;84.60;;;;;;5075480;28;20070;-78
2022/04/29 08:59:57;;;;;;;14.52;5.95;;;12.60;87.00;;;;;;5075007;28;20039;-78
2022/04/29 09:02:22;;;;;;;13.07;4.95;;;12.70;86.00;;;;;;5075078;28;20071;-78
2022/04/29 09:04:49;;;;;;;14.68;6.22;;;12.90;86.10;;;;;;5075080;28;20499;-79
2022/04/29 09:07:15;;;;;;;16.48;6.07;;;13.10;85.00;;;;;;5074978;28;20025;-79
2022/04/29 09:09:41;;;;;;;15.35;5.60;;;13.10;85.40;;;;;;5074553;28;20487;-78
2022/04/29 09:12:17;;;;;;;11.48;4.80;;;13.20;86.00;;;;;;5074759;28;20029;-78
2022/04/29 09:14:43;;;;;;;13.75;5.30;;;13.30;84.80;;;;;;5074972;28;20028;-78
2022/04/29 09:17:28;;;;;;;13.50;5.60;;;13.40;84.60;;;;;;5074929;28;20410;-78
2022/04/29 09:19:53;;;;;;;9.48;5.15;;;13.50;84.60;;;;;;5074531;28;20029;-78
2022/04/29 09:22:19;;;;;;;13.00;5.20;;;13.60;83.80;;;;;;5074799;28;20043;-78
2022/04/29 09:24:59;;;;;;;13.30;5.10;;;13.70;82.60;;;;;;5074644;28;20032;-79
2022/04/29 09:27:25;;;;;;;20.23;5.72;;;13.70;82.10;;;;;;5074569;28;20027;-78
2022/04/29 09:29:50;;;;;;;12.63;4.90;;;13.90;82.40;;;;;;5074439;28;20107;-78
2022/04/29 09:32:16;;;;;;;14.50;5.55;;;14.00;82.50;;;;;;5074480;28;20023;-78
2022/04/29 09:34:54;;;;;;;12.98;5.55;;;14.10;80.60;;;;;;5074308;28;20490;-78
2022/04/29 09:37:28;;;;;;;9.77;5.00;;;14.10;80.20;;;;;;5074039;28;20028;-78
2022/04/29 09:40:00;;;;;;;20.83;6.65;;;14.00;81.40;;;;;;5074425;28;20028;-78
2022/04/29 09:42:37;;;;;;;17.02;6.45;;;13.90;81.30;;;;;;5074100;28;20051;-78
2022/04/29 09:45:22;;;;;;;15.05;6.63;;;14.00;82.10;;;;;;5073940;28;20557;-79
2022/04/29 09:47:54;;;;;;;20.25;7.40;;;14.00;81.40;;;;;;5073845;28;20361;-79
2022/04/29 09:50:19;;;;;;;15.17;6.37;;;13.80;81.00;;;;;;5074238;28;20028;-79
2022/04/29 09:52:45;;;;;;;12.35;5.63;;;13.70;82.20;;;;;;5073998;28;20266;-78
2022/04/29 09:55:18;;;;;;;11.85;6.60;;;13.70;81.80;;;;;;5073754;28;20151;-79
2022/04/29 09:57:59;;;;;;;16.17;7.57;;;13.70;82.30;;;;;;5073782;28;20028;-78
2022/04/29 10:00:25;;;;;;;32.05;9.27;;;13.80;83.40;;;;;;5073807;28;20032;-78
2022/04/29 10:02:52;;;;;;;16.42;6.60;;;13.80;82.90;;;;;;5073667;28;20017;-78
2022/04/29 10:05:17;;;;;;;15.35;7.75;;;13.80;82.50;;;;;;5073848;28;20395;-78
2022/04/29 10:07:44;;;;;;;11.65;6.88;;;13.90;82.70;;;;;;5073933;28;20069;-78
2022/04/29 10:10:10;;;;;;;15.07;6.90;;;13.80;82.70;;;;;;5073562;28;20055;-78
2022/04/29 10:12:37;;;;;;;18.08;6.47;;;13.80;82.80;;;;;;5073073;28;20475;-78
2022/04/29 10:15:09;;;;;;;14.13;6.53;;;13.80;81.70;;;;;;5073622;28;20034;-78
2022/04/29 10:23:30;;;;;;;15.30;5.75;;;13.80;82.20;;;;;;5050149;28;20036;-77
2022/04/29 10:25:56;;;;;;;12.02;5.00;;;13.90;82.20;;;;;;5060619;28;20071;-77
2022/04/29 10:28:24;;;;;;;14.60;5.90;;;14.00;82.60;;;;;;5071777;28;20601;-78
2022/04/29 10:31:01;;;;;;;19.02;6.15;;;14.10;81.20;;;;;;5072202;28;20032;-80
2022/04/29 10:33:26;;;;;;;18.42;5.47;;;14.10;79.10;;;;;;5070428;28;20487;-77
2022/04/29 10:35:56;;;;;;;117.20;9.38;;;14.10;80.30;;;;;;5070363;28;20278;-79
2022/04/29 10:38:26;;;;;;;65.68;9.30;;;14.10;80.10;;;;;;5070230;28;20032;-78
2022/04/29 10:41:10;;;;;;;13.88;5.20;;;14.20;80.60;;;;;;5072033;28;20078;-80
2022/04/29 10:43:39;;;;;;;14.80;5.20;;;14.30;79.90;;;;;;5071992;28;20364;-78
2022/04/29 10:46:05;;;;;;;16.98;5.90;;;14.30;78.80;;;;;;5071727;28;20029;-79
2022/04/29 10:48:37;;;;;;;15.27;5.20;;;14.30;79.10;;;;;;5071687;28;20019;-78
2022/04/29 10:51:20;;;;;;;11.63;5.35;;;14.30;80.10;;;;;;5069774;28;20033;-79
2022/04/29 10:53:49;;;;;;;8.95;4.80;;;14.40;79.90;;;;;;5071010;28;20040;-79
2022/04/29 10:56:26;;;;;;;7.25;3.40;;;14.60;78.20;;;;;;5071311;28;20028;-77
2022/04/29 10:58:53;;;;;;;13.60;4.78;;;14.60;77.60;;;;;;5071170;28;20376;-75
2022/04/29 11:01:27;;;;;;;10.57;4.65;;;14.70;77.00;;;;;;5070721;28;20492;-76
2022/04/29 11:03:53;;;;;;;9.32;4.35;;;14.70;76.70;;;;;;5071550;28;20032;-77
2022/04/29 11:06:19;;;;;;;11.90;5.30;;;14.80;76.40;;;;;;5070079;28;20052;-77
2022/04/29 11:08:46;;;;;;;10.25;5.10;;;14.70;76.90;;;;;;5074202;28;20060;-77
2022/04/29 11:11:12;;;;;;;13.50;4.55;;;14.50;76.20;;;;;;5074802;28;20209;-77
2022/04/29 11:13:43;;;;;;;10.95;5.90;;;14.40;77.50;;;;;;5073053;28;20619;-77
2022/04/29 11:16:15;;;;;;;12.50;5.35;;;14.30;77.30;;;;;;5075262;28;20068;-76
2022/04/29 11:18:43;;;;;;;8.52;4.35;;;14.40;77.80;;;;;;5074998;28;20032;-78
2022/04/29 11:26:46;;;;;;;10.63;5.15;;;14.80;77.30;;;;;;5075138;28;20124;-76
2022/04/29 11:29:12;;;;;;;11.60;4.50;;;14.70;76.40;;;;;;5075099;28;20025;-76
2022/04/29 11:31:38;;;;;;;11.93;5.20;;;14.60;76.90;;;;;;5075132;28;20585;-76
2022/04/29 11:34:11;;;;;;;8.77;4.85;;;14.60;76.20;;;;;;5074918;28;20499;-76
2022/04/29 11:36:37;;;;;;;13.75;6.22;;;14.40;76.50;;;;;;5073646;28;20024;-76
2022/04/29 11:39:17;;;;;;;11.50;5.55;;;14.20;77.10;;;;;;5074907;28;20032;-76
2022/04/29 11:41:53;;;;;;;11.95;4.63;;;14.20;78.10;;;;;;5074922;28;20442;-75
2022/04/29 11:44:44;;;;;;;11.20;5.10;;;14.20;77.80;;;;;;5075083;28;20471;-76
2022/04/29 11:47:10;;;;;;;7.05;4.53;;;14.30;77.20;;;;;;5075135;28;20028;-76
2022/04/29 11:49:35;;;;;;;13.30;6.07;;;14.40;77.90;;;;;;5074617;28;20460;-76
2022/04/29 11:52:17;;;;;;;8.60;4.97;;;14.60;77.80;;;;;;5074639;28;20051;-77
2022/04/29 11:54:50;;;;;;;11.90;6.07;;;14.60;77.40;;;;;;5074896;28;20029;-76
2022/04/29 11:57:16;;;;;;;13.50;5.35;;;14.50;77.00;;;;;;5074577;28;20031;-74
2022/04/29 11:59:42;;;;;;;11.55;4.75;;;14.60;76.70;;;;;;5072954;28;20032;-75
2022/04/29 12:02:10;;;;;;;9.82;4.55;;;14.70;76.00;;;;;;5073480;28;20031;-75
2022/04/29 12:04:35;;;;;;;9.75;5.05;;;14.80;75.60;;;;;;5072456;28;20083;-74
2022/04/29 12:07:03;;;;;;;10.00;4.97;;;14.80;75.60;;;;;;5072410;28;20049;-75
2022/04/29 12:09:32;;;;;;;9.63;4.78;;;14.80;75.70;;;;;;5074058;28;20044;-75
2022/04/29 12:11:59;;;;;;;17.70;6.03;;;14.80;75.20;;;;;;5074538;28;20094;-75
2022/04/29 12:14:26;;;;;;;9.80;5.18;;;14.80;75.10;;;;;;5073103;28;20021;-77
2022/04/29 12:16:52;;;;;;;11.98;4.82;;;14.70;75.80;;;;;;5074068;28;20051;-77
2022/04/29 12:19:23;;;;;;;12.25;5.10;;;14.70;75.50;;;;;;5073999;28;20020;-76
2022/04/29 12:21:59;;;;;;;12.57;5.53;;;14.70;74.60;;;;;;5074417;28;20104;-76
2022/04/29 12:24:25;;;;;;;8.90;4.72;;;14.70;74.70;;;;;;5074020;28;20506;-76
2022/04/29 12:27:07;;;;;;;12.40;5.28;;;14.70;75.00;;;;;;5074277;28;20434;-76
2022/04/29 12:29:34;;;;;;;14.63;5.90;;;14.70;75.10;;;;;;5074281;28;20032;-76
2022/04/29 12:35:11;;;;;;;12.07;5.05;;;14.40;74.50;;;;;;5074187;28;20039;-76
2022/04/29 12:37:37;;;;;;;11.35;4.05;;;14.50;75.00;;;;;;5073045;28;20022;-77
2022/04/29 12:40:05;;;;;;;8.98;4.68;;;14.60;75.40;;;;;;5074072;28;20028;-76
2022/04/29 12:42:30;;;;;;;8.65;4.03;;;14.80;73.90;;;;;;5073329;28;20134;-76
2022/04/29 12:47:43;;;;;;;10.80;4.30;;;15.00;73.00;;;;;;5072650;28;20070;-76
2022/04/29 12:50:34;;;;;;;10.63;4.43;;;15.00;72.50;;;;;;5071340;28;20028;-76
2022/04/29 12:53:08;;;;;;;12.32;4.50;;;15.00;72.60;;;;;;5073621;28;20024;-76
2022/04/29 12:55:36;;;;;;;8.48;4.57;;;14.90;72.90;;;;;;5073313;28;20111;-76
2022/04/29 12:58:08;;;;;;;12.70;4.53;;;14.90;73.10;;;;;;5073661;28;20449;-75
2022/04/29 13:00:35;;;;;;;9.13;4.30;;;14.90;73.00;;;;;;5073753;28;20032;-75
2022/04/29 13:03:15;;;;;;;9.55;4.80;;;15.20;72.60;;;;;;5073494;28;20031;-75
2022/04/29 13:05:41;;;;;;;8.18;4.43;;;15.40;73.50;;;;;;5073433;28;20078;-75
2022/04/29 13:08:09;;;;;;;9.05;3.75;;;15.60;72.70;;;;;;5073187;28;20090;-74
2022/04/29 13:10:46;;;;;;;8.65;4.20;;;15.80;71.40;;;;;;5073220;28;20453;-75
2022/04/29 13:13:15;;;;;;;9.13;4.88;;;15.90;70.70;;;;;;5073371;28;20020;-77
2022/04/29 13:15:43;;;;;;;8.23;4.15;;;16.10;70.20;;;;;;5073243;28;20032;-76
2022/04/29 13:18:09;;;;;;;8.30;4.28;;;16.20;69.50;;;;;;5071928;28;20146;-76